createdAt,value
2019-03-30T00:02:28.409Z,8.50
2019-03-30T00:04:59.181Z,8.50
2019-03-30T00:07:29.282Z,8.50
2019-03-30T00:09:59.395Z,8.40
2019-03-30T00:12:29.455Z,8.40
2019-03-30T00:14:59.434Z,8.40
2019-03-30T00:17:29.583Z,8.30
2019-03-30T00:19:59.659Z,8.20
2019-03-30T00:22:29.609Z,8.20
2019-03-30T00:24:59.815Z,8.20
2019-03-30T00:27:29.886Z,8.10
2019-03-30T00:29:59.987Z,8.10
2019-03-30T00:32:30.230Z,7.90
2019-03-30T00:35:00.394Z,7.90
2019-03-30T00:37:30.543Z,7.80
2019-03-30T00:40:00.682Z,7.80
2019-03-30T00:42:30.768Z,7.80
2019-03-30T00:45:08.557Z,7.80
2019-03-30T00:47:38.575Z,7.70
2019-03-30T00:50:08.635Z,7.80
2019-03-30T00:52:38.737Z,7.70
2019-03-30T00:55:08.696Z,7.70
2019-03-30T00:57:38.636Z,7.70
2019-03-30T01:00:09.059Z,7.70
2019-03-30T01:02:39.042Z,7.70
2019-03-30T01:05:09.199Z,7.60
2019-03-30T01:07:39.432Z,7.60
2019-03-30T01:10:09.500Z,7.60
2019-03-30T01:12:39.498Z,7.60
2019-03-30T01:15:10.385Z,7.50
2019-03-30T01:17:40.815Z,7.50
2019-03-30T01:20:10.963Z,7.50
2019-03-30T01:22:41.262Z,7.50
2019-03-30T01:25:11.381Z,7.40
2019-03-30T01:27:41.469Z,7.40
2019-03-30T01:30:22.420Z,7.30
2019-03-30T01:32:43.996Z,7.30
2019-03-30T01:35:14.103Z,7.30
2019-03-30T01:37:44.179Z,7.20
2019-03-30T01:40:14.284Z,7.20
2019-03-30T01:42:44.358Z,7.10
2019-03-30T01:45:14.594Z,7.10
2019-03-30T01:47:44.533Z,7.10
2019-03-30T01:50:17.529Z,7.10
2019-03-30T01:52:46.442Z,7.10
2019-03-30T01:55:16.403Z,7.00
2019-03-30T01:57:46.369Z,7.00
2019-03-30T02:00:17.793Z,7.00
2019-03-30T02:02:47.722Z,7.00
2019-03-30T02:05:17.676Z,6.90
2019-03-30T02:07:47.827Z,6.90
2019-03-30T02:10:33.112Z,6.90
2019-03-30T02:13:03.203Z,6.80
2019-03-30T02:15:33.293Z,6.70
2019-03-30T02:18:03.312Z,6.70
2019-03-30T02:20:44.061Z,6.70
2019-03-30T02:23:14.150Z,6.70
2019-03-30T02:25:44.157Z,6.70
2019-03-30T02:28:14.191Z,6.70
2019-03-30T02:30:44.272Z,6.70
2019-03-30T02:33:14.440Z,6.70
2019-03-30T02:35:44.488Z,6.60
2019-03-30T02:38:14.339Z,6.60
2019-03-30T02:40:44.331Z,6.50
2019-03-30T02:43:14.547Z,6.50
2019-03-30T02:45:44.593Z,6.50
2019-03-30T02:48:15.871Z,6.40
2019-03-30T02:50:49.877Z,6.40
2019-03-30T02:53:17.532Z,6.30
2019-03-30T02:55:47.507Z,6.30
2019-03-30T02:58:21.847Z,6.30
2019-03-30T03:00:52.412Z,6.20
2019-03-30T03:03:22.374Z,6.20
2019-03-30T03:05:52.468Z,6.20
2019-03-30T03:08:22.527Z,6.20
2019-03-30T03:10:52.559Z,6.20
2019-03-30T03:13:22.654Z,6.10
2019-03-30T03:15:52.743Z,6.20
2019-03-30T03:18:22.771Z,6.20
2019-03-30T03:21:08.002Z,6.20
2019-03-30T03:23:48.200Z,6.20
2019-03-30T03:26:39.545Z,6.20
2019-03-30T03:29:14.152Z,6.20
2019-03-30T03:31:44.245Z,6.10
2019-03-30T03:34:14.230Z,6.10
2019-03-30T03:36:44.279Z,5.90
2019-03-30T03:39:14.462Z,5.90
2019-03-30T03:41:44.472Z,5.90
2019-03-30T03:44:14.487Z,5.90
2019-03-30T03:46:44.569Z,5.90
2019-03-30T03:49:14.663Z,5.90
2019-03-30T03:51:45.206Z,5.90
2019-03-30T03:54:15.655Z,5.80
2019-03-30T03:56:48.957Z,5.80
2019-03-30T03:59:20.524Z,5.80
2019-03-30T04:01:52.580Z,5.80
2019-03-30T04:04:27.367Z,5.80
2019-03-30T04:07:01.472Z,5.80
2019-03-30T04:09:34.624Z,5.80
2019-03-30T04:12:07.783Z,5.80
2019-03-30T04:14:40.793Z,5.80
2019-03-30T04:17:10.841Z,5.70
2019-03-30T04:19:41.556Z,5.70
2019-03-30T04:22:11.700Z,5.70
2019-03-30T04:24:41.754Z,5.70
2019-03-30T04:27:11.870Z,5.70
2019-03-30T04:29:42.249Z,5.70
2019-03-30T04:32:12.281Z,5.60
2019-03-30T04:34:42.387Z,5.50
2019-03-30T04:37:12.459Z,5.60
2019-03-30T04:39:42.531Z,5.50
2019-03-30T04:42:12.563Z,5.50
2019-03-30T04:44:42.539Z,5.50
2019-03-30T04:47:12.493Z,5.50
2019-03-30T04:49:42.598Z,5.40
2019-03-30T04:52:13.145Z,5.40
2019-03-30T04:54:43.214Z,5.30
2019-03-30T04:57:13.326Z,5.30
2019-03-30T04:59:43.486Z,5.20
2019-03-30T05:02:13.543Z,5.20
2019-03-30T05:04:43.711Z,5.20
2019-03-30T05:07:13.832Z,5.20
2019-03-30T05:09:43.946Z,5.20
2019-03-30T05:12:17.096Z,5.30
2019-03-30T05:14:47.189Z,5.30
2019-03-30T05:17:17.293Z,5.40
2019-03-30T05:19:47.339Z,5.20
2019-03-30T05:22:20.131Z,5.20
2019-03-30T05:24:50.122Z,5.30
2019-03-30T05:27:20.267Z,5.20
2019-03-30T05:29:50.444Z,5.20
2019-03-30T05:32:20.812Z,5.20
2019-03-30T05:34:50.825Z,5.20
2019-03-30T05:37:22.413Z,5.20
2019-03-30T05:39:52.382Z,5.20
2019-03-30T05:42:22.480Z,5.30
2019-03-30T05:44:52.594Z,5.30
2019-03-30T05:47:22.672Z,5.30
2019-03-30T05:49:52.985Z,5.40
2019-03-30T05:52:26.758Z,5.40
2019-03-30T05:54:54.749Z,5.40
2019-03-30T05:57:24.849Z,5.50
2019-03-30T05:59:56.039Z,5.50
2019-03-30T06:02:26.575Z,5.50
2019-03-30T06:04:58.595Z,5.60
2019-03-30T06:07:28.385Z,5.70
2019-03-30T06:09:58.385Z,5.70
2019-03-30T06:12:28.407Z,5.80
2019-03-30T06:14:58.518Z,5.90
2019-03-30T06:17:28.552Z,5.90
2019-03-30T06:19:58.589Z,5.80
2019-03-30T06:22:39.793Z,5.90
2019-03-30T06:25:00.333Z,6.00
2019-03-30T06:27:30.602Z,6.00
2019-03-30T06:30:25.328Z,6.10
2019-03-30T06:32:55.278Z,6.20
2019-03-30T06:35:25.314Z,6.30
2019-03-30T06:37:55.419Z,6.30
2019-03-30T06:40:25.367Z,6.40
2019-03-30T06:42:55.364Z,6.60
2019-03-30T06:45:25.382Z,6.70
2019-03-30T06:47:55.407Z,6.90
2019-03-30T06:50:25.505Z,7.10
2019-03-30T06:52:58.137Z,7.40
2019-03-30T06:55:27.391Z,7.70
2019-03-30T06:57:57.472Z,8.20
2019-03-30T07:00:37.803Z,8.60
2019-03-30T07:03:08.402Z,8.90
2019-03-30T07:05:42.457Z,9.10
2019-03-30T07:08:16.490Z,9.30
2019-03-30T07:10:47.034Z,9.40
2019-03-30T07:13:17.401Z,9.50
2019-03-30T07:15:51.326Z,9.50
2019-03-30T07:18:23.073Z,9.70
2019-03-30T07:20:53.085Z,9.80
2019-03-30T07:23:23.260Z,9.90
2019-03-30T07:25:53.251Z,9.90
2019-03-30T07:28:23.199Z,9.90
2019-03-30T07:30:53.296Z,10.10
2019-03-30T07:33:23.358Z,10.30
2019-03-30T07:35:53.344Z,10.30
2019-03-30T07:38:23.392Z,10.40
2019-03-30T07:40:53.480Z,10.70
2019-03-30T07:43:23.541Z,10.80
2019-03-30T07:45:53.710Z,10.90
2019-03-30T07:48:26.175Z,11.10
2019-03-30T07:50:57.335Z,11.20
2019-03-30T07:53:28.088Z,11.30
2019-03-30T07:56:08.302Z,11.40
2019-03-30T07:58:29.760Z,11.50
2019-03-30T08:00:59.944Z,11.60
2019-03-30T08:03:29.900Z,11.60
2019-03-30T08:05:59.804Z,11.60
2019-03-30T08:08:29.914Z,11.70
2019-03-30T08:10:59.909Z,11.80
2019-03-30T08:13:29.759Z,11.90
2019-03-30T08:15:59.628Z,12.00
2019-03-30T08:18:29.543Z,12.20
2019-03-30T08:20:59.377Z,12.30
2019-03-30T08:23:39.774Z,12.40
2019-03-30T08:26:00.795Z,12.50
2019-03-30T08:28:30.647Z,12.60
2019-03-30T08:31:00.520Z,12.80
2019-03-30T08:33:30.366Z,12.90
2019-03-30T08:36:00.295Z,13.10
2019-03-30T08:38:30.193Z,13.00
2019-03-30T08:41:00.024Z,13.20
2019-03-30T08:43:29.818Z,13.30
2019-03-30T08:46:10.345Z,13.40
2019-03-30T08:48:40.513Z,13.50
2019-03-30T08:51:10.540Z,13.60
2019-03-30T08:53:53.749Z,13.70
2019-03-30T08:56:12.210Z,13.90
2019-03-30T08:58:42.169Z,13.90
2019-03-30T09:01:12.299Z,13.90
2019-03-30T09:03:42.481Z,13.90
2019-03-30T09:06:12.536Z,14.00
2019-03-30T09:08:42.527Z,14.10
2019-03-30T09:11:12.447Z,14.20
2019-03-30T09:13:42.449Z,14.30
2019-03-30T09:16:12.434Z,14.40
2019-03-30T09:18:42.531Z,14.40
2019-03-30T09:21:12.592Z,14.50
2019-03-30T09:23:42.661Z,14.50
2019-03-30T09:26:12.732Z,14.50
2019-03-30T09:28:42.718Z,14.70
2019-03-30T09:31:12.825Z,14.80
2019-03-30T09:33:42.744Z,14.80
2019-03-30T09:36:12.689Z,14.90
2019-03-30T09:38:42.707Z,14.90
2019-03-30T09:41:12.744Z,14.80
2019-03-30T09:43:43.589Z,15.00
2019-03-30T09:46:13.741Z,15.00
2019-03-30T09:48:43.754Z,15.10
2019-03-30T09:51:13.786Z,15.20
2019-03-30T09:53:43.867Z,15.20
2019-03-30T09:56:13.831Z,15.20
2019-03-30T09:58:43.962Z,15.30
2019-03-30T10:01:14.010Z,15.30
2019-03-30T10:03:44.029Z,15.40
2019-03-30T10:06:14.123Z,15.60
2019-03-30T10:08:44.253Z,15.70
2019-03-30T10:11:14.225Z,15.80
2019-03-30T10:13:44.219Z,15.80
2019-03-30T10:16:14.919Z,15.90
2019-03-30T10:18:45.094Z,16.00
2019-03-30T10:21:15.195Z,16.10
2019-03-30T10:23:45.299Z,16.20
2019-03-30T10:26:15.300Z,16.40
2019-03-30T10:28:47.095Z,16.50
2019-03-30T10:31:17.121Z,16.50
2019-03-30T10:33:47.241Z,16.50
2019-03-30T10:36:17.419Z,16.60
2019-03-30T10:38:47.561Z,16.70
2019-03-30T10:41:17.723Z,16.80
2019-03-30T10:43:47.966Z,16.80
2019-03-30T10:46:18.045Z,16.90
2019-03-30T10:48:48.104Z,16.80
2019-03-30T10:51:18.236Z,17.00
2019-03-30T10:53:57.217Z,17.10
2019-03-30T10:56:31.848Z,17.20
2019-03-30T10:59:01.979Z,17.30
2019-03-30T11:01:32.013Z,17.30
2019-03-30T11:04:03.406Z,17.30
2019-03-30T11:06:33.355Z,17.30
2019-03-30T11:09:04.563Z,17.40
2019-03-30T11:11:34.599Z,17.40
2019-03-30T11:14:04.617Z,17.50
2019-03-30T11:16:36.641Z,17.60
2019-03-30T11:19:06.526Z,17.70
2019-03-30T11:21:36.827Z,17.80
2019-03-30T11:24:07.063Z,17.90
2019-03-30T11:26:37.157Z,18.00
2019-03-30T11:29:07.135Z,18.00
2019-03-30T11:31:36.962Z,18.00
2019-03-30T11:34:06.890Z,18.10
2019-03-30T11:36:42.761Z,18.20
2019-03-30T11:39:12.535Z,18.30
2019-03-30T11:41:42.487Z,18.40
2019-03-30T11:44:12.298Z,18.40
2019-03-30T11:46:42.263Z,18.30
2019-03-30T11:49:12.106Z,18.30
2019-03-30T11:51:41.856Z,18.30
2019-03-30T11:54:11.585Z,18.40
2019-03-30T11:56:41.440Z,18.40
2019-03-30T11:59:11.274Z,18.40
2019-03-30T12:01:41.212Z,18.30
2019-03-30T12:04:11.109Z,18.50
2019-03-30T12:06:40.929Z,18.60
2019-03-30T12:09:10.916Z,18.60
2019-03-30T12:11:40.909Z,18.60
2019-03-30T12:14:10.859Z,18.60
2019-03-30T12:16:40.834Z,18.40
2019-03-30T12:19:10.681Z,18.30
2019-03-30T12:21:42.143Z,18.50
2019-03-30T12:24:12.033Z,18.70
2019-03-30T12:26:41.895Z,18.90
2019-03-30T12:29:11.702Z,19.00
2019-03-30T12:31:41.524Z,19.00
2019-03-30T12:34:13.061Z,19.00
2019-03-30T12:36:42.966Z,19.20
2019-03-30T12:39:12.771Z,19.40
2019-03-30T12:41:42.638Z,19.40
2019-03-30T12:44:12.495Z,19.50
2019-03-30T12:46:42.654Z,19.60
2019-03-30T12:49:12.714Z,19.60
2019-03-30T12:51:42.545Z,19.60
2019-03-30T12:54:12.520Z,19.60
2019-03-30T12:56:42.868Z,19.70
2019-03-30T12:59:13.224Z,19.70
2019-03-30T13:01:43.481Z,19.90
2019-03-30T13:04:13.677Z,20.00
2019-03-30T13:06:44.026Z,20.10
2019-03-30T13:09:14.216Z,20.20
2019-03-30T13:11:45.517Z,20.20
2019-03-30T13:14:15.822Z,20.00
2019-03-30T13:16:46.122Z,20.10
2019-03-30T13:19:16.815Z,20.10
2019-03-30T13:21:52.826Z,20.10
2019-03-30T13:24:21.140Z,20.10
2019-03-30T13:26:51.999Z,20.30
2019-03-30T13:29:22.292Z,20.30
2019-03-30T13:31:53.506Z,20.30
2019-03-30T13:34:24.882Z,20.30
2019-03-30T13:36:55.193Z,20.20
2019-03-30T13:39:25.447Z,20.20
2019-03-30T13:41:55.686Z,20.40
2019-03-30T13:44:29.948Z,20.50
2019-03-30T13:47:01.013Z,20.60
2019-03-30T13:49:31.560Z,20.70
2019-03-30T13:52:01.812Z,20.70
2019-03-30T13:54:34.833Z,20.60
2019-03-30T13:57:05.728Z,20.60
2019-03-30T13:59:37.032Z,20.60
2019-03-30T14:02:10.269Z,20.60
2019-03-30T14:04:40.548Z,20.60
2019-03-30T14:07:13.433Z,20.70
2019-03-30T14:09:43.751Z,20.80
2019-03-30T14:12:15.023Z,21.10
2019-03-30T14:14:46.964Z,21.00
2019-03-30T14:17:19.963Z,21.00
2019-03-30T14:19:49.964Z,21.10
2019-03-30T14:22:21.065Z,21.10
2019-03-30T14:24:51.580Z,21.10
2019-03-30T14:27:22.874Z,21.10
2019-03-30T14:29:54.564Z,21.60
2019-03-30T14:32:25.919Z,22.60
2019-03-30T14:34:56.315Z,23.10
2019-03-30T14:37:26.193Z,23.70
2019-03-30T14:39:56.034Z,24.50
2019-03-30T15:47:48.966Z,25.50
2019-03-30T15:50:18.791Z,24.90
2019-03-30T15:52:48.599Z,24.10
2019-03-30T15:55:18.418Z,23.00
2019-03-30T15:57:48.331Z,22.30
2019-03-30T16:00:18.835Z,21.80
2019-03-30T16:02:48.692Z,21.30
2019-03-30T16:05:21.645Z,20.80
2019-03-30T16:07:51.725Z,20.50
2019-03-30T16:10:21.544Z,20.30
2019-03-30T16:12:51.338Z,20.80
2019-03-30T16:15:21.938Z,21.30
2019-03-30T16:17:51.699Z,21.70
2019-03-30T16:20:21.556Z,22.40
2019-03-30T16:22:51.387Z,23.40
2019-03-30T16:25:21.171Z,24.10
2019-03-30T16:27:50.989Z,24.30
2019-03-30T16:30:20.804Z,23.60
2019-03-30T16:32:51.260Z,22.60
2019-03-30T16:35:21.284Z,22.10
2019-03-30T16:37:51.177Z,22.20
2019-03-30T16:40:21.046Z,22.60
2019-03-30T16:42:50.893Z,22.90
2019-03-30T16:45:20.828Z,23.10
2019-03-30T16:47:50.783Z,22.90
2019-03-30T16:50:20.822Z,22.70
2019-03-30T16:52:51.318Z,22.60
2019-03-30T16:55:21.354Z,22.40
2019-03-30T16:57:51.191Z,22.20
2019-03-30T17:00:21.205Z,22.00
2019-03-30T17:02:51.509Z,21.90
2019-03-30T17:05:21.483Z,22.00
2019-03-30T17:07:51.447Z,22.20
2019-03-30T17:10:21.263Z,22.40
2019-03-30T17:12:51.208Z,22.60
2019-03-30T17:15:21.330Z,22.60
2019-03-30T17:17:53.193Z,22.30
2019-03-30T17:20:23.448Z,21.80
2019-03-30T17:22:53.477Z,21.90
2019-03-30T17:25:23.540Z,21.80
2019-03-30T17:27:58.570Z,21.40
2019-03-30T17:30:24.939Z,21.00
2019-03-30T17:32:54.713Z,20.60
2019-03-30T17:35:24.536Z,20.20
2019-03-30T17:37:54.420Z,19.90
2019-03-30T17:40:24.788Z,19.60
2019-03-30T17:43:16.791Z,19.40
2019-03-30T17:46:18.751Z,19.20
2019-03-30T17:48:49.644Z,18.90
2019-03-30T17:51:19.679Z,18.80
2019-03-30T17:53:55.334Z,18.60
2019-03-30T17:56:27.247Z,18.50
2019-03-30T17:58:57.304Z,18.40
2019-03-30T18:01:27.386Z,18.20
2019-03-30T18:03:57.727Z,18.10
2019-03-30T18:06:27.732Z,18.00
2019-03-30T18:09:01.770Z,18.00
2019-03-30T18:11:31.789Z,17.80
2019-03-30T18:14:01.833Z,17.70
2019-03-30T18:16:31.803Z,17.60
2019-03-30T18:19:01.916Z,17.40
2019-03-30T18:21:31.972Z,17.20
2019-03-30T18:24:02.110Z,17.10
2019-03-30T18:27:34.557Z,17.00
2019-03-30T18:30:04.715Z,16.80
2019-03-30T18:32:34.704Z,16.60
2019-03-30T18:35:05.112Z,16.40
2019-03-30T18:37:36.507Z,16.40
2019-03-30T18:40:07.113Z,16.20
2019-03-30T18:42:37.063Z,16.10
2019-03-30T18:45:08.846Z,16.00
2019-03-30T18:47:38.695Z,15.80
2019-03-30T18:50:09.223Z,15.70
2019-03-30T18:52:39.468Z,15.60
2019-03-30T18:55:11.106Z,15.50
2019-03-30T18:57:41.229Z,15.50
2019-03-30T19:00:13.751Z,15.40
2019-03-30T19:02:43.841Z,15.40
2019-03-30T19:05:13.658Z,15.20
2019-03-30T19:07:43.525Z,15.10
2019-03-30T19:10:13.375Z,15.00
2019-03-30T19:12:43.233Z,14.90
2019-03-30T19:15:13.317Z,14.80
2019-03-30T19:17:43.048Z,14.80
2019-03-30T19:20:13.012Z,14.70
2019-03-30T19:22:42.755Z,14.60
2019-03-30T19:25:12.642Z,14.50
2019-03-30T19:27:42.350Z,14.40
2019-03-30T19:30:12.857Z,14.40
2019-03-30T19:32:42.653Z,14.30
2019-03-30T19:35:12.515Z,14.30
2019-03-30T19:37:42.351Z,14.20
2019-03-30T19:40:12.378Z,14.10
2019-03-30T19:42:42.263Z,14.00
2019-03-30T19:45:12.510Z,13.90
2019-03-30T19:47:42.226Z,13.90
2019-03-30T19:50:12.340Z,13.80
2019-03-30T19:52:42.156Z,13.60
2019-03-30T19:55:12.052Z,13.50
2019-03-30T19:57:41.853Z,13.50
2019-03-30T20:00:13.363Z,13.50
2019-03-30T20:02:43.186Z,13.40
2019-03-30T20:05:14.012Z,13.30
2019-03-30T20:07:43.896Z,13.30
2019-03-30T20:10:14.179Z,13.20
2019-03-30T20:12:43.971Z,13.10
2019-03-30T20:15:13.779Z,13.00
2019-03-30T20:17:43.494Z,12.90
2019-03-30T20:20:13.300Z,12.80
2019-03-30T20:22:43.133Z,12.70
2019-03-30T20:25:13.334Z,12.70
2019-03-30T20:27:43.111Z,12.60
2019-03-30T20:30:13.324Z,12.50
2019-03-30T20:32:43.296Z,12.50
2019-03-30T20:35:13.318Z,12.50
2019-03-30T20:37:43.223Z,12.40
2019-03-30T20:40:13.492Z,12.40
2019-03-30T20:42:43.289Z,12.40
2019-03-30T20:45:15.369Z,12.40
2019-03-30T20:47:46.464Z,12.30
2019-03-30T20:50:17.105Z,12.30
2019-03-30T20:52:47.158Z,12.20
2019-03-30T20:55:17.032Z,12.20
2019-03-30T20:57:46.864Z,12.10
2019-03-30T21:00:17.274Z,12.00
2019-03-30T21:02:47.215Z,11.90
2019-03-30T21:05:17.051Z,11.80
2019-03-30T21:07:47.061Z,11.80
2019-03-30T21:10:17.110Z,11.80
2019-03-30T21:12:47.019Z,11.80
2019-03-30T21:15:17.054Z,11.70
2019-03-30T21:17:47.864Z,11.60
2019-03-30T21:20:17.915Z,11.60
2019-03-30T21:22:47.881Z,11.60
2019-03-30T21:25:48.074Z,11.50
2019-03-30T21:28:17.892Z,11.60
2019-03-30T21:30:47.726Z,11.50
2019-03-30T21:33:17.557Z,11.50
2019-03-30T21:35:47.321Z,11.40
2019-03-30T21:38:17.238Z,11.30
2019-03-30T21:40:47.274Z,11.30
2019-03-30T21:43:19.671Z,11.30
2019-03-30T21:45:48.666Z,11.30
2019-03-30T21:48:18.540Z,11.20
2019-03-30T21:50:48.429Z,11.20
2019-03-30T21:53:18.346Z,11.10
2019-03-30T21:55:48.353Z,11.00
2019-03-30T21:58:18.316Z,11.00
2019-03-30T22:00:48.291Z,11.00
2019-03-30T22:03:18.107Z,11.00
2019-03-30T22:05:47.967Z,10.90
2019-03-30T22:08:20.268Z,10.80
2019-03-30T22:10:50.160Z,10.80
2019-03-30T22:13:21.654Z,10.60
2019-03-30T22:15:51.739Z,10.60
2019-03-30T22:18:21.587Z,10.60
2019-03-30T22:20:51.450Z,10.50
2019-03-30T22:23:21.227Z,10.50
2019-03-30T22:25:51.115Z,10.40
2019-03-30T22:28:20.961Z,10.40
2019-03-30T22:30:50.729Z,10.40
2019-03-30T22:33:20.602Z,10.40
2019-03-30T22:35:50.435Z,10.30
2019-03-30T22:38:20.414Z,10.30
2019-03-30T22:40:50.448Z,10.30
2019-03-30T22:43:20.335Z,10.30
2019-03-30T22:45:50.223Z,10.30
2019-03-30T22:48:19.985Z,10.20
2019-03-30T22:50:49.719Z,10.20
2019-03-30T22:53:19.568Z,10.10
2019-03-30T22:55:49.431Z,10.10
2019-03-30T22:58:19.239Z,10.00
2019-03-30T23:01:04.566Z,9.90
2019-03-30T23:03:34.285Z,10.00
2019-03-30T23:06:04.093Z,10.00
2019-03-30T23:08:33.823Z,9.90
2019-03-30T23:11:03.539Z,9.90
2019-03-30T23:13:33.400Z,9.90
2019-03-30T23:16:03.234Z,9.80
2019-03-30T23:18:33.025Z,9.80
2019-03-30T23:21:02.813Z,9.80
2019-03-30T23:23:32.821Z,9.70
2019-03-30T23:26:02.682Z,9.70
2019-03-30T23:28:32.386Z,9.60
2019-03-30T23:31:02.128Z,9.60
2019-03-30T23:33:31.934Z,9.60
2019-03-30T23:36:01.917Z,9.50
2019-03-30T23:38:31.673Z,9.50
2019-03-30T23:41:01.385Z,9.50
2019-03-30T23:43:31.097Z,9.40
2019-03-30T23:46:00.859Z,9.30
2019-03-30T23:48:30.631Z,9.30
2019-03-30T23:51:00.347Z,9.30
2019-03-30T23:53:30.144Z,9.30
2019-03-30T23:55:59.874Z,9.20
2019-03-30T23:58:29.733Z,9.20
